createdAt,value
2022-10-21T00:02:00.871Z,10.10
2022-10-21T00:04:27.750Z,10.90
2022-10-21T00:06:54.616Z,9.90
2022-10-21T00:09:21.778Z,9.30
2022-10-21T00:11:48.665Z,10.20
2022-10-21T00:14:15.716Z,12.30
2022-10-21T00:16:42.685Z,9.50
2022-10-21T00:19:09.606Z,11.70
2022-10-21T00:21:37.328Z,13.30
2022-10-21T00:24:04.475Z,10.50
2022-10-21T00:26:34.969Z,10.70
2022-10-21T00:29:04.707Z,10.60
2022-10-21T00:31:33.369Z,12.80
2022-10-21T00:34:00.259Z,9.20
2022-10-21T00:36:27.195Z,10.50
2022-10-21T00:38:56.284Z,11.90
2022-10-21T00:41:23.294Z,12.70
2022-10-21T00:44:06.151Z,11.40
2022-10-21T00:46:32.965Z,9.40
2022-10-21T00:49:03.437Z,11.40
2022-10-21T00:51:31.125Z,14.40
2022-10-21T00:53:59.057Z,12.10
2022-10-21T00:56:30.685Z,13.40
2022-10-21T00:59:00.168Z,11.10
2022-10-21T01:01:27.398Z,13.40
2022-10-21T01:03:54.341Z,13.20
2022-10-21T01:06:23.737Z,13.30
2022-10-21T01:08:54.491Z,13.00
2022-10-21T01:11:22.908Z,10.80
2022-10-21T01:14:20.578Z,11.10
2022-10-21T01:16:53.536Z,12.30
2022-10-21T01:19:47.788Z,12.00
2022-10-21T01:22:52.344Z,12.00
2022-10-21T01:25:53.079Z,11.90
2022-10-21T01:29:00.683Z,12.90
2022-10-21T01:31:33.816Z,13.10
2022-10-21T01:34:14.697Z,12.00
2022-10-21T01:37:08.227Z,14.20
2022-10-21T01:39:36.991Z,12.10
2022-10-21T01:42:42.526Z,9.90
2022-10-21T01:45:18.300Z,11.90
2022-10-21T01:47:53.613Z,11.40
2022-10-21T01:50:26.858Z,12.30
2022-10-21T01:53:05.914Z,12.20
2022-10-21T01:55:35.051Z,11.90
2022-10-21T01:58:06.472Z,12.60
2022-10-21T02:00:36.355Z,11.70
2022-10-21T02:03:10.819Z,12.60
2022-10-21T02:05:38.049Z,12.10
2022-10-21T02:08:05.215Z,12.00
2022-10-21T02:10:38.437Z,12.10
2022-10-21T02:13:09.468Z,12.30
2022-10-21T02:15:38.933Z,14.50
2022-10-21T02:18:17.610Z,12.40
2022-10-21T02:20:45.042Z,14.30
2022-10-21T02:23:15.355Z,13.40
2022-10-21T02:25:45.784Z,11.00
2022-10-21T02:28:13.637Z,13.40
2022-10-21T02:31:08.463Z,15.00
2022-10-21T02:33:54.259Z,15.20
2022-10-21T02:36:27.123Z,14.00
2022-10-21T02:39:02.218Z,12.30
2022-10-21T02:41:31.932Z,12.40
2022-10-21T02:44:02.260Z,15.30
2022-10-21T02:46:41.588Z,12.10
2022-10-21T02:49:08.827Z,12.70
2022-10-21T02:51:36.051Z,12.40
2022-10-21T02:54:03.131Z,14.20
2022-10-21T02:59:02.080Z,14.10
2022-10-21T03:01:29.070Z,14.70
2022-10-21T03:03:55.966Z,13.50
2022-10-21T03:06:23.814Z,14.50
2022-10-21T03:08:50.826Z,14.10
2022-10-21T03:11:18.015Z,14.80
2022-10-21T03:13:45.003Z,14.50
2022-10-21T03:16:11.949Z,14.60
2022-10-21T03:18:38.790Z,14.10
2022-10-21T03:21:05.816Z,13.40
2022-10-21T03:23:33.154Z,15.60
2022-10-21T03:25:59.987Z,14.70
2022-10-21T03:28:27.408Z,13.70
2022-10-21T03:30:54.476Z,16.00
2022-10-21T03:33:21.407Z,13.00
2022-10-21T03:35:48.236Z,15.80
2022-10-21T03:38:15.067Z,14.10
2022-10-21T03:40:41.865Z,15.40
2022-10-21T03:43:08.728Z,13.90
2022-10-21T03:45:35.674Z,13.70
2022-10-21T03:48:02.727Z,16.50
2022-10-21T03:50:29.590Z,15.90
2022-10-21T03:52:56.521Z,13.90
2022-10-21T03:55:24.743Z,14.70
2022-10-21T03:57:52.706Z,14.90
2022-10-21T04:00:19.946Z,13.50
2022-10-21T04:02:46.937Z,15.00
2022-10-21T04:05:14.766Z,15.90
2022-10-21T04:07:41.956Z,15.10
2022-10-21T04:10:10.156Z,15.50
2022-10-21T04:12:37.928Z,13.80
2022-10-21T04:15:06.590Z,14.90
2022-10-21T04:17:33.628Z,14.20
2022-10-21T04:20:00.577Z,16.50
2022-10-21T04:22:27.576Z,13.10
2022-10-21T04:24:54.454Z,16.00
2022-10-21T04:27:21.500Z,15.90
2022-10-21T04:29:48.354Z,15.20
2022-10-21T04:32:15.181Z,14.90
2022-10-21T04:34:42.394Z,14.20
2022-10-21T04:37:09.367Z,14.60
2022-10-21T04:39:36.497Z,14.20
2022-10-21T04:42:03.777Z,14.50
2022-10-21T04:44:30.670Z,15.70
2022-10-21T04:46:57.665Z,13.90
2022-10-21T04:49:24.598Z,14.20
2022-10-21T04:51:51.488Z,14.70
2022-10-21T04:54:18.486Z,14.10
2022-10-21T04:56:45.394Z,16.30
2022-10-21T04:59:12.356Z,14.70
2022-10-21T05:01:39.428Z,16.90
2022-10-21T05:04:06.968Z,16.30
2022-10-21T05:06:33.870Z,16.00
2022-10-21T05:09:01.255Z,14.80
2022-10-21T05:11:28.344Z,13.70
2022-10-21T05:13:55.186Z,15.80
2022-10-21T05:16:23.679Z,14.00
2022-10-21T05:18:50.600Z,15.70
2022-10-21T05:21:17.466Z,15.60
2022-10-21T05:23:44.359Z,15.10
2022-10-21T05:26:11.306Z,18.00
2022-10-21T05:28:38.234Z,15.50
2022-10-21T05:31:05.167Z,14.00
2022-10-21T05:33:32.006Z,18.10
2022-10-21T05:36:01.553Z,16.70
2022-10-21T05:38:29.202Z,14.80
2022-10-21T05:40:56.526Z,16.90
2022-10-21T05:43:24.209Z,15.80
2022-10-21T05:45:51.060Z,19.40
2022-10-21T05:48:18.114Z,16.40
2022-10-21T05:50:46.027Z,16.60
2022-10-21T05:53:13.785Z,18.10
2022-10-21T05:55:40.662Z,15.40
2022-10-21T05:58:07.737Z,15.20
2022-10-21T06:00:34.747Z,16.10
2022-10-21T06:03:01.944Z,16.10
2022-10-21T06:05:28.854Z,15.30
2022-10-21T06:07:55.914Z,15.50
2022-10-21T06:10:26.653Z,15.90
2022-10-21T06:12:55.988Z,15.80
2022-10-21T06:15:23.309Z,16.20
2022-10-21T06:17:51.433Z,17.30
2022-10-21T06:20:18.530Z,16.70
2022-10-21T06:22:45.430Z,17.10
2022-10-21T06:25:12.570Z,15.10
2022-10-21T06:27:40.093Z,15.50
2022-10-21T06:30:07.639Z,18.70
2022-10-21T06:32:35.201Z,16.50
2022-10-21T06:35:02.229Z,18.10
2022-10-21T06:37:29.360Z,18.20
2022-10-21T06:39:56.456Z,18.10
2022-10-21T06:42:23.332Z,18.20
2022-10-21T06:44:50.270Z,16.90
2022-10-21T06:47:17.159Z,15.90
2022-10-21T06:49:44.330Z,16.70
2022-10-21T06:52:11.177Z,17.30
2022-10-21T06:54:38.203Z,17.60
2022-10-21T06:57:05.145Z,20.20
2022-10-21T06:59:32.134Z,18.40
2022-10-21T07:02:00.716Z,19.30
2022-10-21T07:04:28.788Z,17.70
2022-10-21T07:06:55.952Z,17.20
2022-10-21T07:09:22.939Z,18.70
2022-10-21T07:11:49.865Z,17.80
2022-10-21T07:14:16.750Z,16.50
2022-10-21T07:16:43.873Z,16.60
2022-10-21T07:19:11.096Z,17.80
2022-10-21T07:21:38.208Z,17.90
2022-10-21T07:24:05.302Z,18.00
2022-10-21T07:26:33.985Z,15.80
2022-10-21T07:29:01.643Z,17.60
2022-10-21T07:31:33.253Z,15.80
2022-10-21T07:34:01.372Z,14.90
2022-10-21T07:36:31.364Z,18.00
2022-10-21T07:39:02.118Z,16.60
2022-10-21T07:41:32.150Z,16.30
2022-10-21T07:43:59.731Z,18.40
2022-10-21T07:46:27.042Z,15.80
2022-10-21T07:48:54.996Z,15.30
2022-10-21T07:51:28.454Z,16.90
2022-10-21T07:54:00.456Z,17.20
2022-10-21T07:56:31.238Z,16.80
2022-10-21T07:58:59.019Z,18.30
2022-10-21T08:01:26.080Z,15.80
2022-10-21T08:03:55.077Z,17.00
2022-10-21T08:06:23.672Z,17.40
2022-10-21T08:08:51.113Z,18.30
2022-10-21T08:11:29.514Z,17.60
2022-10-21T08:13:57.333Z,15.70
2022-10-21T08:16:24.991Z,16.70
2022-10-21T08:18:52.847Z,17.80
2022-10-21T08:21:20.469Z,15.90
2022-10-21T08:23:47.868Z,16.30
2022-10-21T08:26:15.634Z,16.00
2022-10-21T08:28:42.993Z,16.50
2022-10-21T08:31:16.507Z,18.00
2022-10-21T08:33:44.829Z,16.30
2022-10-21T08:36:18.722Z,18.70
2022-10-21T08:38:46.414Z,17.80
2022-10-21T08:41:28.770Z,17.80
2022-10-21T08:44:05.311Z,18.30
2022-10-21T08:47:10.601Z,17.30
2022-10-21T08:49:43.803Z,19.40
2022-10-21T08:52:16.472Z,20.80
2022-10-21T08:54:53.233Z,16.50
2022-10-21T08:57:20.373Z,17.00
2022-10-21T08:59:47.366Z,17.70
2022-10-21T09:02:17.098Z,18.40
2022-10-21T09:04:55.839Z,17.90
2022-10-21T09:07:29.411Z,16.00
2022-10-21T09:10:07.367Z,17.60
2022-10-21T09:12:56.247Z,17.20
2022-10-21T09:15:51.162Z,17.70
2022-10-21T09:19:16.514Z,14.90
2022-10-21T09:22:29.965Z,17.20
2022-10-21T09:25:13.350Z,16.80
2022-10-21T09:27:55.130Z,16.50
2022-10-21T09:30:24.206Z,16.30
2022-10-21T09:32:56.522Z,15.70
2022-10-21T09:35:36.237Z,16.40
2022-10-21T09:38:17.663Z,16.30
2022-10-21T09:40:47.038Z,17.90
2022-10-21T09:43:18.030Z,14.70
2022-10-21T09:45:46.209Z,16.30
2022-10-21T09:48:21.784Z,15.00
2022-10-21T09:51:00.509Z,15.60
2022-10-21T09:53:31.149Z,15.10
2022-10-21T09:56:04.367Z,16.20
2022-10-21T09:59:05.054Z,16.20
2022-10-21T10:01:36.448Z,16.20
2022-10-21T10:04:13.906Z,15.90
2022-10-21T10:06:43.768Z,16.40
2022-10-21T10:09:15.526Z,17.70
2022-10-21T10:11:53.300Z,15.80
2022-10-21T10:14:34.274Z,17.60
2022-10-21T10:17:21.498Z,15.40
2022-10-21T10:20:03.723Z,15.30
2022-10-21T10:22:37.246Z,19.30
2022-10-21T10:25:11.317Z,16.10
2022-10-21T10:27:59.678Z,17.40
2022-10-21T10:30:49.230Z,16.40
2022-10-21T10:33:35.474Z,20.60
2022-10-21T10:36:09.270Z,15.30
2022-10-21T10:38:39.800Z,15.80
2022-10-21T10:41:09.520Z,15.30
2022-10-21T10:43:46.744Z,15.20
2022-10-21T10:46:26.485Z,16.00
2022-10-21T10:48:55.315Z,14.90
2022-10-21T10:51:23.231Z,17.00
2022-10-21T10:54:02.942Z,14.40
2022-10-21T10:56:43.610Z,15.90
2022-10-21T10:59:16.821Z,13.20
2022-10-21T11:05:35.769Z,13.50
2022-10-21T11:08:14.398Z,13.40
2022-10-21T11:10:53.848Z,13.70
2022-10-21T11:13:23.553Z,16.00
2022-10-21T11:16:05.107Z,13.90
2022-10-21T11:18:37.658Z,15.10
2022-10-21T11:21:16.451Z,13.60
2022-10-21T11:23:58.705Z,14.80
2022-10-21T11:26:39.871Z,15.50
2022-10-21T11:29:25.341Z,16.40
2022-10-21T11:32:11.553Z,16.10
2022-10-21T11:35:00.758Z,15.80
2022-10-21T11:37:27.892Z,14.70
2022-10-21T11:40:13.802Z,15.20
2022-10-21T11:42:49.212Z,14.00
2022-10-21T11:45:18.739Z,13.10
2022-10-21T11:47:55.069Z,13.70
2022-10-21T11:50:25.067Z,13.20
2022-10-21T11:53:18.896Z,13.40
2022-10-21T11:56:07.772Z,14.90
2022-10-21T11:59:14.659Z,14.70
2022-10-21T12:01:53.648Z,12.50
2022-10-21T12:04:29.525Z,13.30
2022-10-21T12:07:12.668Z,14.00
2022-10-21T12:09:45.683Z,10.80
2022-10-21T12:12:23.377Z,12.90
2022-10-21T12:14:58.374Z,11.90
2022-10-21T12:17:25.980Z,12.90
2022-10-21T12:20:14.600Z,12.20
2022-10-21T12:22:41.814Z,12.60
2022-10-21T12:25:11.572Z,12.90
2022-10-21T12:27:43.153Z,12.70
2022-10-21T12:30:34.602Z,13.10
2022-10-21T12:33:38.668Z,15.20
2022-10-21T12:36:37.684Z,13.30
2022-10-21T12:39:12.198Z,13.80
2022-10-21T12:41:40.389Z,11.60
2022-10-21T12:44:13.546Z,12.80
2022-10-21T12:46:43.613Z,14.20
2022-10-21T12:49:19.697Z,13.10
2022-10-21T12:51:55.104Z,14.60
2022-10-21T12:54:30.506Z,21.40
2022-10-21T12:57:11.177Z,16.20
2022-10-21T12:59:42.356Z,14.80
2022-10-21T13:02:27.610Z,13.70
2022-10-21T13:04:56.629Z,13.00
2022-10-21T13:07:23.549Z,13.00
2022-10-21T13:09:50.454Z,15.10
2022-10-21T13:12:30.632Z,16.90
2022-10-21T13:15:01.766Z,20.90
2022-10-21T13:17:32.845Z,18.20
2022-10-21T13:20:05.963Z,15.50
2022-10-21T13:22:39.709Z,16.50
2022-10-21T13:25:15.917Z,17.20
2022-10-21T13:27:47.904Z,30.40
2022-10-21T13:30:34.041Z,21.40
2022-10-21T13:33:04.462Z,20.80
2022-10-21T13:35:41.967Z,20.80
2022-10-21T13:38:23.181Z,80.70
2022-10-21T13:41:00.133Z,45.70
2022-10-21T13:43:30.665Z,25.50
2022-10-21T13:46:08.748Z,18.90
2022-10-21T13:48:41.913Z,16.10
2022-10-21T13:51:34.077Z,15.00
2022-10-21T13:54:12.164Z,15.20
2022-10-21T13:56:40.565Z,12.20
2022-10-21T13:59:32.192Z,15.40
2022-10-21T14:01:59.137Z,17.00
2022-10-21T14:04:29.197Z,21.90
2022-10-21T14:07:05.847Z,20.70
2022-10-21T14:09:40.620Z,18.40
2022-10-21T14:12:43.184Z,17.70
2022-10-21T14:15:21.267Z,16.60
2022-10-21T14:17:51.954Z,19.00
2022-10-21T14:20:33.377Z,22.40
2022-10-21T14:23:06.408Z,16.80
2022-10-21T14:25:34.226Z,20.40
2022-10-21T14:28:03.668Z,21.50
2022-10-21T14:30:33.242Z,16.40
2022-10-21T14:33:03.302Z,20.10
2022-10-21T14:35:31.539Z,17.50
2022-10-21T14:38:03.827Z,15.80
2022-10-21T14:40:35.462Z,17.20
2022-10-21T14:43:18.586Z,17.20
2022-10-21T14:45:51.341Z,16.70
2022-10-21T14:48:50.621Z,16.70
2022-10-21T14:51:22.094Z,15.40
2022-10-21T14:53:57.275Z,17.00
2022-10-21T14:56:31.215Z,15.50
2022-10-21T14:59:00.296Z,14.40
2022-10-21T15:01:27.529Z,15.80
2022-10-21T15:03:57.775Z,16.20
2022-10-21T15:06:26.355Z,16.20
2022-10-21T15:08:56.498Z,16.10
2022-10-21T15:11:29.532Z,30.50
2022-10-21T15:13:57.702Z,20.10
2022-10-21T15:16:27.981Z,16.10
2022-10-21T15:18:55.034Z,15.00
2022-10-21T15:21:25.036Z,16.10
2022-10-21T15:23:56.025Z,17.50
2022-10-21T15:26:36.669Z,19.00
2022-10-21T15:29:42.601Z,22.10
2022-10-21T15:32:12.877Z,22.00
2022-10-21T15:34:39.820Z,20.20
2022-10-21T15:37:06.957Z,22.00
2022-10-21T15:39:33.843Z,27.80
2022-10-21T15:42:01.160Z,22.70
2022-10-21T15:44:30.121Z,24.30
2022-10-21T15:47:00.331Z,21.80
2022-10-21T15:49:32.305Z,23.90
2022-10-21T15:51:59.287Z,27.70
2022-10-21T15:54:26.263Z,22.60
2022-10-21T15:56:54.160Z,20.30
2022-10-21T15:59:30.036Z,19.60
2022-10-21T16:01:57.724Z,21.60
2022-10-21T16:04:25.758Z,25.60
2022-10-21T16:06:54.099Z,24.80
2022-10-21T16:09:25.034Z,20.80
2022-10-21T16:11:59.436Z,23.00
2022-10-21T16:14:29.597Z,68.60
2022-10-21T16:16:58.200Z,26.40
2022-10-21T16:19:25.632Z,28.40
2022-10-21T16:21:52.608Z,24.50
2022-10-21T16:24:19.435Z,21.00
2022-10-21T16:26:48.484Z,19.90
2022-10-21T16:29:20.987Z,22.40
2022-10-21T16:31:48.282Z,21.20
2022-10-21T16:34:15.261Z,21.10
2022-10-21T16:36:42.609Z,22.50
2022-10-21T16:39:18.274Z,26.40
2022-10-21T16:41:45.577Z,25.30
2022-10-21T16:44:12.432Z,26.40
2022-10-21T16:46:42.087Z,28.40
2022-10-21T16:49:15.079Z,25.10
2022-10-21T16:51:47.262Z,28.70
2022-10-21T16:54:15.783Z,26.70
2022-10-21T16:56:42.743Z,25.90
2022-10-21T16:59:09.655Z,25.90
2022-10-21T17:01:37.013Z,26.30
2022-10-21T17:04:04.523Z,22.70
2022-10-21T17:06:31.492Z,21.00
2022-10-21T17:08:58.431Z,23.60
2022-10-21T17:11:35.613Z,22.90
2022-10-21T17:14:05.088Z,20.00
2022-10-21T17:16:32.282Z,24.50
2022-10-21T17:18:59.784Z,24.60
2022-10-21T17:21:29.681Z,24.80
2022-10-21T17:26:24.334Z,28.10
2022-10-21T17:28:51.554Z,25.00
2022-10-21T17:31:21.010Z,23.90
2022-10-21T17:33:49.254Z,22.50
2022-10-21T17:36:17.170Z,26.10
2022-10-21T17:38:44.953Z,35.50
2022-10-21T17:41:14.845Z,37.80
2022-10-21T17:46:16.205Z,28.60
2022-10-21T17:48:43.202Z,29.60
2022-10-21T17:51:10.127Z,27.40
2022-10-21T17:53:36.975Z,27.10
2022-10-21T17:56:06.404Z,30.00
2022-10-21T17:58:34.349Z,30.00
2022-10-21T18:01:09.058Z,33.80
2022-10-21T18:03:36.800Z,34.00
2022-10-21T18:06:06.989Z,34.20
2022-10-21T18:08:34.586Z,29.40
2022-10-21T18:11:02.452Z,36.50
2022-10-21T18:13:30.587Z,39.10
2022-10-21T18:16:06.540Z,40.90
2022-10-21T18:18:34.102Z,40.90
2022-10-21T18:21:27.495Z,40.80
2022-10-21T18:23:55.034Z,34.10
2022-10-21T18:26:29.122Z,31.70
2022-10-21T18:29:00.423Z,28.60
2022-10-21T18:31:32.713Z,27.30
2022-10-21T18:34:04.480Z,26.20
2022-10-21T18:36:32.409Z,28.10
2022-10-21T18:38:59.907Z,26.90
2022-10-21T18:41:26.959Z,25.20
2022-10-21T18:44:00.791Z,25.30
2022-10-21T18:46:31.591Z,22.30
2022-10-21T18:48:59.144Z,26.90
2022-10-21T18:51:26.516Z,24.60
2022-10-21T18:53:53.593Z,24.40
2022-10-21T18:56:22.781Z,23.50
2022-10-21T18:58:51.259Z,26.70
2022-10-21T19:01:19.969Z,25.10
2022-10-21T19:03:50.286Z,26.10
2022-10-21T19:06:45.614Z,25.10
2022-10-21T19:09:16.481Z,25.20
2022-10-21T19:11:45.025Z,26.60
2022-10-21T19:14:15.635Z,25.10
2022-10-21T19:16:44.251Z,26.70
2022-10-21T19:19:13.166Z,24.90
2022-10-21T19:21:40.232Z,24.70
2022-10-21T19:24:08.234Z,26.10
2022-10-21T19:26:37.448Z,27.10
2022-10-21T19:29:24.093Z,29.10
2022-10-21T19:31:51.557Z,29.70
2022-10-21T19:34:22.239Z,30.00
2022-10-21T19:36:49.505Z,30.70
2022-10-21T19:39:16.677Z,31.60
2022-10-21T19:41:43.987Z,31.80
2022-10-21T19:44:11.222Z,27.80
2022-10-21T19:46:58.351Z,26.50
2022-10-21T19:49:26.175Z,26.50
2022-10-21T19:51:56.117Z,26.80
2022-10-21T19:54:23.012Z,27.00
2022-10-21T19:56:50.867Z,27.60
2022-10-21T20:01:49.684Z,27.90
2022-10-21T20:04:16.612Z,28.90
2022-10-21T20:06:43.918Z,27.20
2022-10-21T20:09:12.974Z,25.70
2022-10-21T20:11:40.878Z,22.30
2022-10-21T20:14:08.295Z,24.80
2022-10-21T20:16:38.250Z,22.20
2022-10-21T20:21:34.227Z,23.20
2022-10-21T20:24:01.327Z,23.70
2022-10-21T20:29:07.843Z,23.00
2022-10-21T20:31:34.953Z,25.40
2022-10-21T20:34:02.382Z,22.30
2022-10-21T20:36:34.604Z,22.50
2022-10-21T20:39:02.657Z,25.30
2022-10-21T20:41:34.077Z,25.50
2022-10-21T20:44:02.418Z,23.70
2022-10-21T20:46:34.345Z,24.40
2022-10-21T20:49:02.501Z,25.70
2022-10-21T20:51:29.698Z,24.20
2022-10-21T20:53:59.624Z,24.30
2022-10-21T20:58:54.668Z,29.60
2022-10-21T21:01:24.910Z,26.50
2022-10-21T21:03:57.648Z,29.00
2022-10-21T21:06:25.581Z,28.50
2022-10-21T21:09:15.083Z,31.90
2022-10-21T21:11:40.307Z,31.40
2022-10-21T21:14:09.443Z,28.90
2022-10-21T21:16:36.666Z,31.80
2022-10-21T21:19:06.049Z,36.90
2022-10-21T21:21:34.899Z,43.00
2022-10-21T21:24:03.029Z,39.20
2022-10-21T21:26:32.195Z,38.50
2022-10-21T21:29:00.097Z,32.50
2022-10-21T21:31:29.058Z,31.60
2022-10-21T21:33:56.499Z,35.00
2022-10-21T21:36:24.249Z,35.30
2022-10-21T21:38:53.109Z,38.60
2022-10-21T21:41:21.471Z,40.50
2022-10-21T21:43:50.640Z,39.30
2022-10-21T21:46:24.803Z,41.20
2022-10-21T21:48:56.026Z,38.20
2022-10-21T21:51:27.538Z,35.70
2022-10-21T21:53:55.822Z,31.20
2022-10-21T21:56:23.886Z,28.10
2022-10-21T21:58:54.191Z,27.30
2022-10-21T22:01:25.009Z,25.50
2022-10-21T22:03:52.785Z,27.40
2022-10-21T22:06:22.199Z,23.90
2022-10-21T22:08:49.621Z,24.10
2022-10-21T22:11:20.618Z,24.40
2022-10-21T22:13:47.922Z,26.10
2022-10-21T22:16:16.186Z,28.50
2022-10-21T22:18:43.447Z,26.30
2022-10-21T22:21:14.724Z,29.00
2022-10-21T22:23:42.255Z,25.70
2022-10-21T22:26:10.643Z,25.50
2022-10-21T22:28:38.443Z,27.00
2022-10-21T22:31:11.468Z,26.70
2022-10-21T22:33:39.821Z,25.70
2022-10-21T22:36:07.472Z,23.30
2022-10-21T22:38:34.526Z,23.00
2022-10-21T22:41:05.193Z,23.30
2022-10-21T22:43:34.241Z,24.90
2022-10-21T22:46:09.758Z,21.80
2022-10-21T22:48:48.380Z,27.00
2022-10-21T22:51:15.323Z,21.70
2022-10-21T22:53:42.197Z,24.10
2022-10-21T22:56:09.180Z,25.10
2022-10-21T22:58:36.090Z,24.20
2022-10-21T23:01:08.535Z,24.60
2022-10-21T23:03:36.405Z,23.20
2022-10-21T23:06:03.555Z,22.30
2022-10-21T23:08:30.479Z,24.30
2022-10-21T23:13:27.057Z,22.40
2022-10-21T23:15:53.928Z,22.10
2022-10-21T23:18:23.158Z,22.50
2022-10-21T23:20:50.012Z,25.20
2022-10-21T23:23:16.942Z,22.50
2022-10-21T23:25:43.884Z,25.10
2022-10-21T23:28:10.869Z,21.80
2022-10-21T23:30:37.962Z,23.60
2022-10-21T23:33:04.888Z,21.80
2022-10-21T23:35:32.366Z,23.60
2022-10-21T23:37:59.463Z,22.80
2022-10-21T23:40:27.340Z,21.40
2022-10-21T23:42:54.636Z,21.70
2022-10-21T23:45:21.666Z,23.70
2022-10-21T23:47:48.881Z,23.50
2022-10-21T23:50:16.426Z,22.00
2022-10-21T23:52:43.463Z,22.00
2022-10-21T23:55:10.315Z,21.60
2022-10-21T23:57:37.324Z,22.30
